Terminal Aerodrome Forecast
Issued by NWS Nashville, TN

Home | Current Version | Previous Version | Text Only | Print | Product List | Glossary On
Versions: 1 2 3 4 5 6 7 8 9 10 11 12 13 14 15 16 17 18 19 20 21 22 23
000
FTUS44 KOHX 011100
TAFCSV
TAF
KCSV 011120Z 0112/0212 17008G16KT P6SM OVC100
     FM011800 18010G20KT 5SM -RA OVC035
     FM012000 19011G21KT 2SM RA OVC015
     FM020900 28011G21KT 5SM -RASN OVC025=

USA.gov is the U.S. government's official web portal to all federal, state and local government web resources and services.